createdAt,value
2023-01-11T00:01:11.283Z,99.90
2023-01-11T00:03:38.007Z,99.90
2023-01-11T00:06:05.017Z,99.90
2023-01-11T00:08:32.034Z,99.90
2023-01-11T00:10:58.784Z,99.90
2023-01-11T00:13:29.811Z,99.90
2023-01-11T00:15:56.636Z,99.90
2023-01-11T00:18:23.375Z,99.90
2023-01-11T00:20:50.061Z,99.90
2023-01-11T00:23:16.723Z,99.90
2023-01-11T00:25:43.599Z,99.90
2023-01-11T00:28:10.478Z,99.90
2023-01-11T00:30:37.337Z,99.90
2023-01-11T00:33:04.039Z,99.90
2023-01-11T00:35:32.347Z,99.90
2023-01-11T00:38:02.131Z,99.90
2023-01-11T00:40:28.948Z,99.90
2023-01-11T00:43:14.141Z,99.90
2023-01-11T00:45:59.714Z,99.90
2023-01-11T00:48:26.464Z,99.90
2023-01-11T00:50:55.236Z,99.90
2023-01-11T00:53:21.962Z,99.90
2023-01-11T00:55:51.067Z,99.90
2023-01-11T00:58:17.711Z,99.90
2023-01-11T01:00:47.393Z,99.90
2023-01-11T01:03:14.128Z,99.90
2023-01-11T01:05:40.832Z,99.90
2023-01-11T01:08:07.925Z,99.90
2023-01-11T01:10:34.734Z,99.90
2023-01-11T01:13:29.297Z,99.90
2023-01-11T01:15:59.121Z,99.90
2023-01-11T01:18:25.819Z,99.90
2023-01-11T01:20:52.517Z,99.90
2023-01-11T01:23:19.148Z,99.90
2023-01-11T01:25:46.042Z,99.90
2023-01-11T01:28:12.693Z,99.90
2023-01-11T01:30:41.214Z,99.90
2023-01-11T01:33:07.880Z,99.90
2023-01-11T01:35:37.971Z,99.90
2023-01-11T01:38:04.744Z,99.90
2023-01-11T01:40:31.890Z,99.90
2023-01-11T01:42:58.557Z,99.90
2023-01-11T01:45:28.839Z,99.90
2023-01-11T01:48:00.519Z,99.90
2023-01-11T01:50:35.435Z,99.90
2023-01-11T01:53:17.598Z,99.90
2023-01-11T01:55:50.290Z,99.90
2023-01-11T01:58:20.612Z,99.90
2023-01-11T02:00:47.303Z,99.90
2023-01-11T02:03:20.672Z,99.90
2023-01-11T02:05:48.238Z,99.90
2023-01-11T02:08:35.468Z,99.90
2023-01-11T02:11:03.997Z,99.90
2023-01-11T02:13:31.963Z,99.90
2023-01-11T02:16:10.057Z,99.90
2023-01-11T02:18:38.265Z,99.90
2023-01-11T02:21:27.066Z,99.90
2023-01-11T02:24:27.769Z,99.90
2023-01-11T02:27:30.148Z,99.90
2023-01-11T02:30:21.561Z,99.90
2023-01-11T02:32:59.634Z,99.90
2023-01-11T02:35:50.911Z,99.90
2023-01-11T02:38:43.489Z,99.90
2023-01-11T02:42:12.356Z,99.90
2023-01-11T02:45:25.074Z,99.90
2023-01-11T02:48:10.606Z,99.90
2023-01-11T02:51:02.382Z,99.90
2023-01-11T02:53:54.697Z,99.90
2023-01-11T02:56:25.809Z,99.90
2023-01-11T02:58:55.835Z,99.90
2023-01-11T03:01:23.442Z,99.90
2023-01-11T03:03:51.377Z,99.90
2023-01-11T03:06:28.703Z,99.90
2023-01-11T03:09:29.041Z,99.90
2023-01-11T03:12:23.221Z,99.90
2023-01-11T03:15:19.605Z,99.90
2023-01-11T03:18:23.188Z,99.90
2023-01-11T03:21:02.240Z,99.90
2023-01-11T03:24:07.368Z,99.90
2023-01-11T03:27:10.337Z,99.90
2023-01-11T03:29:44.088Z,99.90
2023-01-11T03:32:26.409Z,99.90
2023-01-11T03:35:04.005Z,99.90
2023-01-11T03:37:47.912Z,99.90
2023-01-11T03:40:25.311Z,99.90
2023-01-11T03:43:11.835Z,99.90
2023-01-11T03:46:03.139Z,99.90
2023-01-11T03:48:44.876Z,99.90
2023-01-11T03:51:14.930Z,99.90
2023-01-11T03:53:46.573Z,99.90
2023-01-11T03:56:17.529Z,99.90
2023-01-11T03:58:44.598Z,99.90
2023-01-11T04:01:12.427Z,1.00
2023-01-11T04:03:39.176Z,1.00
2023-01-11T04:06:06.122Z,92.40
2023-01-11T04:08:35.228Z,99.90
2023-01-11T04:11:05.152Z,99.90
2023-01-11T04:13:34.709Z,99.90
2023-01-11T04:16:01.496Z,99.90
2023-01-11T04:18:31.081Z,99.90
2023-01-11T04:20:57.826Z,99.90
2023-01-11T04:23:24.496Z,99.90
2023-01-11T04:25:51.493Z,99.90
2023-01-11T04:28:18.143Z,99.90
2023-01-11T04:30:44.964Z,1.00
2023-01-11T04:33:13.257Z,99.90
2023-01-11T04:35:40.039Z,1.00
2023-01-11T04:38:06.708Z,99.90
2023-01-11T04:40:33.340Z,99.90
2023-01-11T04:43:02.246Z,99.90
2023-01-11T04:45:30.203Z,99.90
2023-01-11T04:47:57.871Z,99.90
2023-01-11T04:50:25.747Z,1.00
2023-01-11T04:52:55.323Z,99.90
2023-01-11T04:55:22.034Z,99.90
2023-01-11T04:57:48.730Z,99.90
2023-01-11T05:00:16.134Z,99.90
2023-01-11T05:02:43.052Z,99.90
2023-01-11T05:05:10.454Z,99.90
2023-01-11T05:07:38.756Z,99.90
2023-01-11T05:10:08.379Z,99.90
2023-01-11T05:12:35.313Z,99.90
2023-01-11T05:15:05.466Z,99.90
2023-01-11T05:17:32.097Z,99.90
2023-01-11T05:19:58.694Z,99.90
2023-01-11T05:22:25.347Z,99.90
2023-01-11T05:24:52.121Z,99.90
2023-01-11T05:27:18.788Z,99.90
2023-01-11T05:29:45.478Z,99.90
2023-01-11T05:32:12.784Z,99.90
2023-01-11T05:34:39.465Z,99.90
2023-01-11T05:37:09.220Z,99.90
2023-01-11T05:39:35.890Z,99.90
2023-01-11T05:42:02.547Z,99.90
2023-01-11T05:44:50.362Z,99.90
2023-01-11T05:47:20.064Z,99.90
2023-01-11T05:49:46.722Z,99.90
2023-01-11T05:52:16.644Z,99.90
2023-01-11T05:54:43.335Z,99.90
2023-01-11T05:57:13.101Z,99.90
2023-01-11T05:59:39.875Z,99.90
2023-01-11T06:02:06.720Z,1.00
2023-01-11T06:04:33.497Z,1.00
2023-01-11T06:07:00.205Z,1.00
2023-01-11T06:09:29.361Z,1.00
2023-01-11T06:11:56.091Z,1.00
2023-01-11T06:14:23.064Z,1.00
2023-01-11T06:16:49.710Z,1.00
2023-01-11T06:19:16.522Z,10.70
2023-01-11T06:21:43.126Z,40.80
2023-01-11T06:24:12.147Z,63.70
2023-01-11T06:26:38.844Z,78.40
2023-01-11T06:29:05.509Z,93.20
2023-01-11T06:31:32.140Z,91.60
2023-01-11T06:33:58.806Z,80.10
2023-01-11T06:36:25.532Z,63.80
2023-01-11T06:38:53.012Z,38.50
2023-01-11T06:41:19.770Z,14.50
2023-01-11T06:43:46.855Z,1.00
2023-01-11T06:46:15.229Z,1.00
2023-01-11T06:48:42.463Z,1.00
2023-01-11T06:51:11.888Z,1.00
2023-01-11T06:53:39.804Z,1.00
2023-01-11T06:56:06.832Z,1.00
2023-01-11T06:58:33.557Z,1.00
2023-01-11T07:01:00.354Z,1.00
2023-01-11T07:03:27.420Z,1.00
2023-01-11T07:05:56.939Z,1.00
2023-01-11T07:08:27.696Z,1.00
2023-01-11T07:10:54.820Z,1.00
2023-01-11T07:13:21.831Z,1.00
2023-01-11T07:15:50.670Z,1.00
2023-01-11T07:18:19.184Z,1.00
2023-01-11T07:20:46.136Z,1.00
2023-01-11T07:23:14.854Z,1.00
2023-01-11T07:25:43.908Z,1.00
2023-01-11T07:28:10.640Z,1.00
2023-01-11T07:30:56.071Z,1.00
2023-01-11T07:33:26.449Z,1.00
2023-01-11T07:35:53.659Z,1.00
2023-01-11T07:38:20.447Z,1.00
2023-01-11T07:40:47.180Z,5.30
2023-01-11T07:43:21.395Z,24.10
2023-01-11T07:45:50.560Z,38.60
2023-01-11T07:48:27.252Z,46.60
2023-01-11T07:50:54.617Z,55.40
2023-01-11T07:53:21.637Z,67.20
2023-01-11T07:55:48.359Z,77.90
2023-01-11T07:58:15.750Z,90.80
2023-01-11T08:00:42.804Z,99.90
2023-01-11T08:03:10.677Z,99.90
2023-01-11T08:05:37.570Z,99.90
2023-01-11T08:08:05.256Z,99.90
2023-01-11T08:10:35.222Z,99.90
2023-01-11T08:13:20.776Z,99.90
2023-01-11T08:15:49.939Z,99.90
2023-01-11T08:18:19.853Z,99.90
2023-01-11T08:20:53.261Z,99.90
2023-01-11T08:23:21.005Z,99.90
2023-01-11T08:25:47.662Z,99.90
2023-01-11T08:28:14.335Z,99.90
2023-01-11T08:30:41.079Z,99.90
2023-01-11T08:33:07.806Z,99.90
2023-01-11T08:35:38.786Z,99.90
2023-01-11T08:38:08.458Z,99.90
2023-01-11T08:40:35.662Z,99.90
2023-01-11T08:43:02.464Z,99.90
2023-01-11T08:45:29.257Z,99.90
2023-01-11T08:47:56.147Z,99.90
2023-01-11T08:50:28.754Z,99.90
2023-01-11T08:52:55.628Z,99.90
2023-01-11T08:55:22.223Z,99.90
2023-01-11T08:57:51.126Z,99.90
2023-01-11T09:00:20.564Z,99.90
2023-01-11T09:02:47.291Z,99.90
2023-01-11T09:05:16.771Z,99.90
2023-01-11T09:07:44.738Z,99.90
2023-01-11T09:10:11.606Z,99.90
2023-01-11T09:12:38.284Z,99.90
2023-01-11T09:15:05.848Z,99.90
2023-01-11T09:17:38.280Z,99.90
2023-01-11T09:20:05.482Z,99.90
2023-01-11T09:22:32.133Z,99.90
2023-01-11T09:25:00.085Z,99.90
2023-01-11T09:27:26.880Z,99.90
2023-01-11T09:29:53.571Z,99.90
2023-01-11T09:32:27.308Z,99.90
2023-01-11T09:34:59.809Z,99.90
2023-01-11T09:37:26.648Z,99.90
2023-01-11T09:39:53.349Z,99.90
2023-01-11T09:42:40.585Z,99.90
2023-01-11T09:45:15.384Z,99.90
2023-01-11T09:47:48.652Z,99.90
2023-01-11T09:50:19.982Z,99.90
2023-01-11T09:52:52.753Z,99.90
2023-01-11T09:55:30.148Z,99.90
2023-01-11T09:58:07.233Z,99.90
2023-01-11T10:00:48.992Z,99.90
2023-01-11T10:03:31.117Z,99.90
2023-01-11T10:06:14.998Z,99.90
2023-01-11T10:18:39.331Z,99.90
2023-01-11T10:18:52.845Z,99.90
2023-01-11T10:21:23.479Z,99.90
2023-01-11T10:24:01.163Z,99.90
2023-01-11T10:26:36.141Z,99.90
2023-01-11T10:29:21.503Z,99.90
2023-01-11T10:32:02.240Z,99.90
2023-01-11T10:34:45.939Z,99.90
2023-01-11T10:37:37.293Z,99.90
2023-01-11T10:40:45.900Z,99.90
2023-01-11T10:43:21.843Z,99.90
2023-01-11T10:45:56.332Z,99.90
2023-01-11T10:48:29.420Z,99.90
2023-01-11T10:51:29.853Z,99.90
2023-01-11T10:54:22.136Z,99.90
2023-01-11T10:57:14.075Z,99.90
2023-01-11T10:59:56.373Z,99.90
2023-01-11T11:02:40.728Z,99.90
2023-01-11T11:05:26.277Z,99.90
2023-01-11T11:07:58.785Z,99.90
2023-01-11T11:11:12.294Z,99.90
2023-01-11T11:13:58.443Z,99.90
2023-01-11T11:16:39.988Z,99.90
2023-01-11T11:19:12.445Z,99.90
2023-01-11T11:21:42.396Z,99.90
2023-01-11T11:24:35.857Z,99.90
2023-01-11T11:27:40.529Z,99.90
2023-01-11T11:30:11.563Z,99.90
2023-01-11T11:32:43.037Z,99.90
2023-01-11T11:35:31.093Z,99.90
2023-01-11T11:37:58.001Z,99.90
2023-01-11T11:40:35.132Z,99.90
2023-01-11T11:43:22.220Z,99.90
2023-01-11T11:46:05.342Z,78.50
2023-01-11T11:48:35.599Z,24.40
2023-01-11T11:51:07.670Z,99.90
2023-01-11T11:53:46.073Z,1.00
2023-01-11T11:56:23.218Z,99.90
2023-01-11T11:58:50.893Z,99.90
2023-01-11T12:01:23.549Z,99.90
2023-01-11T12:03:52.820Z,99.90
2023-01-11T12:06:28.378Z,99.90
2023-01-11T12:08:58.211Z,99.90
2023-01-11T12:11:37.882Z,99.90
2023-01-11T12:14:21.294Z,99.90
2023-01-11T12:16:50.898Z,99.90
2023-01-11T12:19:39.513Z,99.90
2023-01-11T12:22:21.086Z,99.90
2023-01-11T12:25:22.076Z,99.90
2023-01-11T12:28:28.176Z,99.90
2023-01-11T12:31:32.653Z,99.90
2023-01-11T12:34:23.600Z,99.90
2023-01-11T12:37:27.323Z,99.90
2023-01-11T12:40:18.919Z,99.90
2023-01-11T12:43:07.615Z,99.90
2023-01-11T12:46:15.157Z,99.90
2023-01-11T12:48:50.442Z,99.90
2023-01-11T12:51:32.547Z,99.90
2023-01-11T12:54:18.102Z,99.90
2023-01-11T12:56:59.817Z,99.90
2023-01-11T12:59:46.024Z,99.90
2023-01-11T13:02:42.099Z,99.90
2023-01-11T13:05:51.734Z,99.90
2023-01-11T13:08:24.385Z,99.90
2023-01-11T13:11:34.877Z,99.90
2023-01-11T13:14:27.750Z,99.90
2023-01-11T13:17:25.066Z,1.00
2023-01-11T13:20:17.609Z,99.90
2023-01-11T13:22:50.090Z,99.90
2023-01-11T13:25:39.601Z,99.90
2023-01-11T13:28:33.588Z,99.90
2023-01-11T13:31:04.010Z,99.90
2023-01-11T13:33:32.653Z,99.90
2023-01-11T13:36:23.302Z,99.90
2023-01-11T13:38:54.633Z,99.90
2023-01-11T13:41:43.407Z,99.90
2023-01-11T13:44:10.175Z,99.90
2023-01-11T13:46:41.875Z,99.90
2023-01-11T13:49:18.379Z,99.90
2023-01-11T13:52:03.492Z,99.90
2023-01-11T13:54:44.475Z,99.90
2023-01-11T13:57:16.894Z,99.90
2023-01-11T13:59:49.150Z,99.90
2023-01-11T14:02:38.037Z,99.90
2023-01-11T14:05:14.629Z,99.90
2023-01-11T14:08:00.962Z,99.90
2023-01-11T14:10:46.405Z,99.90
2023-01-11T14:13:59.737Z,99.90
2023-01-11T14:17:07.156Z,99.90
2023-01-11T14:19:39.708Z,99.90
2023-01-11T14:22:15.022Z,99.90
2023-01-11T14:24:49.626Z,99.90
2023-01-11T14:27:24.822Z,99.90
2023-01-11T14:30:09.572Z,99.90
2023-01-11T14:33:06.650Z,99.90
2023-01-11T14:35:47.864Z,99.90
2023-01-11T14:38:20.608Z,99.90
2023-01-11T14:41:08.581Z,99.90
2023-01-11T14:43:55.858Z,99.90
2023-01-11T14:46:42.185Z,99.90
2023-01-11T14:49:10.638Z,99.90
2023-01-11T14:51:43.482Z,99.90
2023-01-11T14:54:38.375Z,99.90
2023-01-11T14:57:41.675Z,99.90
2023-01-11T15:00:20.583Z,99.90
2023-01-11T15:02:52.289Z,99.90
2023-01-11T15:05:31.680Z,99.90
2023-01-11T15:08:50.884Z,99.90
2023-01-11T15:11:34.465Z,99.90
2023-01-11T15:14:23.841Z,99.90
2023-01-11T15:17:12.458Z,99.90
2023-01-11T15:19:42.183Z,99.90
2023-01-11T15:22:31.501Z,99.90
2023-01-11T15:25:04.115Z,99.90
2023-01-11T15:27:37.103Z,99.90
2023-01-11T15:30:07.469Z,99.90
2023-01-11T15:32:36.125Z,99.90
2023-01-11T15:35:24.358Z,99.90
2023-01-11T15:37:54.186Z,99.90
2023-01-11T15:40:26.620Z,99.90
2023-01-11T15:43:30.407Z,99.90
2023-01-11T15:46:28.559Z,99.90
2023-01-11T15:49:07.326Z,99.90
2023-01-11T15:51:58.803Z,99.90
2023-01-11T15:54:42.362Z,99.90
2023-01-11T15:57:18.158Z,99.90
2023-01-11T16:00:20.156Z,99.90
2023-01-11T16:03:05.498Z,99.90
2023-01-11T16:05:37.239Z,99.90
2023-01-11T16:08:22.002Z,99.90
2023-01-11T16:11:06.357Z,99.90
2023-01-11T16:13:57.645Z,99.90
2023-01-11T16:16:31.719Z,99.90
2023-01-11T16:19:20.526Z,99.90
2023-01-11T16:21:55.411Z,99.90
2023-01-11T16:24:29.542Z,99.90
2023-01-11T16:27:03.299Z,99.90
2023-01-11T16:29:36.165Z,99.90
2023-01-11T16:32:13.746Z,99.90
2023-01-11T16:34:48.447Z,99.90
2023-01-11T16:37:36.781Z,99.90
2023-01-11T16:40:11.314Z,99.90
2023-01-11T16:42:55.822Z,99.90
2023-01-11T16:45:43.351Z,99.90
2023-01-11T16:48:17.852Z,99.90
2023-01-11T16:51:16.399Z,99.90
2023-01-11T16:53:53.231Z,99.90
2023-01-11T16:56:23.952Z,99.90
2023-01-11T16:59:15.266Z,99.90
2023-01-11T17:01:51.073Z,99.90
2023-01-11T17:04:32.757Z,99.90
2023-01-11T17:07:23.681Z,99.90
2023-01-11T17:09:51.117Z,99.90
2023-01-11T17:12:24.668Z,99.90
2023-01-11T17:15:03.546Z,99.90
2023-01-11T17:17:36.198Z,99.90
2023-01-11T17:20:04.426Z,99.90
2023-01-11T17:22:35.735Z,99.90
2023-01-11T17:25:04.476Z,99.90
2023-01-11T17:27:40.691Z,99.90
2023-01-11T17:30:28.640Z,99.90
2023-01-11T17:32:59.498Z,99.90
2023-01-11T17:35:28.899Z,99.90
2023-01-11T17:37:58.173Z,99.90
2023-01-11T17:40:48.534Z,99.90
2023-01-11T17:43:48.635Z,99.90
2023-01-11T17:46:22.135Z,99.90
2023-01-11T17:48:56.843Z,99.90
2023-01-11T17:51:29.102Z,99.90
2023-01-11T17:53:58.250Z,99.90
2023-01-11T17:56:45.533Z,99.90
2023-01-11T17:59:16.712Z,99.90
2023-01-11T18:01:49.314Z,99.90
2023-01-11T18:04:21.978Z,99.90
2023-01-11T18:06:51.254Z,99.90
2023-01-11T18:09:22.379Z,99.90
2023-01-11T18:11:51.408Z,1.00
2023-01-11T18:14:25.180Z,1.00
2023-01-11T18:16:56.837Z,1.00
2023-01-11T18:19:32.528Z,92.80
2023-01-11T18:21:59.274Z,46.00
2023-01-11T18:24:30.655Z,72.00
2023-01-11T18:27:17.761Z,99.90
2023-01-11T18:29:44.580Z,99.90
2023-01-11T18:32:13.604Z,99.90
2023-01-11T18:34:41.549Z,99.90
2023-01-11T18:37:11.925Z,1.00
2023-01-11T18:39:40.154Z,99.90
2023-01-11T18:42:12.724Z,1.00
2023-01-11T18:44:41.430Z,1.00
2023-01-11T18:47:17.467Z,1.00
2023-01-11T18:49:44.920Z,99.90
2023-01-11T18:52:12.341Z,99.90
2023-01-11T18:54:41.618Z,99.90
2023-01-11T18:57:08.917Z,99.90
2023-01-11T18:59:38.316Z,99.90
2023-01-11T19:04:45.687Z,99.90
2023-01-11T19:07:15.551Z,30.40
2023-01-11T19:09:42.600Z,1.00
2023-01-11T19:12:09.264Z,1.00
2023-01-11T19:14:36.052Z,1.00
2023-01-11T19:17:04.590Z,1.00
2023-01-11T19:19:31.305Z,1.00
2023-01-11T19:21:58.168Z,1.00
2023-01-11T19:24:24.868Z,1.00
2023-01-11T19:26:51.743Z,1.00
2023-01-11T19:29:19.108Z,99.90
2023-01-11T19:31:47.053Z,1.00
2023-01-11T19:34:16.893Z,99.90
2023-01-11T19:36:43.870Z,99.90
2023-01-11T19:39:11.175Z,99.90
2023-01-11T19:41:56.729Z,99.90
2023-01-11T19:44:33.263Z,1.00
2023-01-11T19:47:16.985Z,1.00
2023-01-11T19:49:44.690Z,1.00
2023-01-11T19:52:14.576Z,1.00
2023-01-11T19:54:47.756Z,99.90
2023-01-11T19:57:20.599Z,99.90
2023-01-11T19:59:48.799Z,1.00
2023-01-11T20:02:17.853Z,1.00
2023-01-11T20:04:48.040Z,99.90
2023-01-11T20:07:16.276Z,1.00
2023-01-11T20:09:43.294Z,1.00
2023-01-11T20:12:12.092Z,1.00
2023-01-11T20:14:40.728Z,1.00
2023-01-11T20:17:08.610Z,1.00
2023-01-11T20:19:35.334Z,1.00
2023-01-11T20:22:02.259Z,1.00
2023-01-11T20:24:29.895Z,99.90
2023-01-11T20:27:01.146Z,99.90
2023-01-11T20:29:28.028Z,99.90
2023-01-11T20:31:55.094Z,48.30
2023-01-11T20:34:22.171Z,1.00
2023-01-11T20:36:52.175Z,99.90
2023-01-11T20:39:18.998Z,99.90
2023-01-11T20:41:51.665Z,99.90
2023-01-11T20:44:24.274Z,1.00
2023-01-11T20:46:52.800Z,99.90
2023-01-11T20:49:23.940Z,99.90
2023-01-11T20:51:50.895Z,1.00
2023-01-11T20:54:18.147Z,99.90
2023-01-11T20:56:47.937Z,1.00
2023-01-11T20:59:17.355Z,1.00
2023-01-11T21:01:44.217Z,63.50
2023-01-11T21:04:12.029Z,1.00
2023-01-11T21:06:41.055Z,1.00
2023-01-11T21:09:13.363Z,1.00
2023-01-11T21:11:40.549Z,1.00
2023-01-11T21:14:12.252Z,1.00
2023-01-11T21:16:44.082Z,89.70
2023-01-11T21:19:12.834Z,1.00
2023-01-11T21:21:40.490Z,99.90
2023-01-11T21:24:08.023Z,99.90
2023-01-11T21:26:37.046Z,99.90
2023-01-11T21:29:05.156Z,99.90
2023-01-11T21:31:34.464Z,99.90
2023-01-11T21:34:01.713Z,99.90
2023-01-11T21:36:30.970Z,99.90
2023-01-11T21:38:59.401Z,99.90
2023-01-11T21:41:47.377Z,99.90
2023-01-11T21:44:15.337Z,99.90
2023-01-11T21:46:42.694Z,99.90
2023-01-11T21:49:13.171Z,1.00
2023-01-11T21:51:40.571Z,1.00
2023-01-11T21:54:09.800Z,1.00
2023-01-11T21:56:37.583Z,1.00
2023-01-11T21:59:04.597Z,1.00
2023-01-11T22:01:33.770Z,13.60
2023-01-11T22:04:07.072Z,8.50
2023-01-11T22:06:38.124Z,99.90
2023-01-11T22:09:05.579Z,99.90
2023-01-11T22:11:35.838Z,1.00
2023-01-11T22:14:03.830Z,99.90
2023-01-11T22:16:31.831Z,99.90
2023-01-11T22:19:02.750Z,1.00
2023-01-11T22:21:29.601Z,99.90
2023-01-11T22:23:58.612Z,99.90
2023-01-11T22:26:26.972Z,99.90
2023-01-11T22:29:15.483Z,1.00
2023-01-11T22:31:44.260Z,1.00
2023-01-11T22:34:13.889Z,1.00
2023-01-11T22:36:41.714Z,1.00
2023-01-11T22:39:08.815Z,99.90
2023-01-11T22:41:35.622Z,99.90
2023-01-11T22:44:02.512Z,99.90
2023-01-11T22:46:29.310Z,1.00
2023-01-11T22:48:58.769Z,1.00
2023-01-11T22:51:27.247Z,99.90
2023-01-11T22:53:56.925Z,1.00
2023-01-11T22:56:25.861Z,99.90
2023-01-11T22:58:59.456Z,99.90
2023-01-11T23:01:29.240Z,99.90
2023-01-11T23:03:57.226Z,99.90
2023-01-11T23:06:30.452Z,99.90
2023-01-11T23:08:58.063Z,99.90
2023-01-11T23:11:46.734Z,99.90
2023-01-11T23:14:15.988Z,99.90
2023-01-11T23:16:44.002Z,99.90
2023-01-11T23:19:12.350Z,99.90
2023-01-11T23:21:44.165Z,99.90
2023-01-11T23:24:12.970Z,99.90
2023-01-11T23:26:40.188Z,99.90
2023-01-11T23:29:09.892Z,99.90
2023-01-11T23:31:36.976Z,99.90
2023-01-11T23:34:04.035Z,99.90
2023-01-11T23:36:33.595Z,99.90
2023-01-11T23:39:04.672Z,99.90
2023-01-11T23:41:50.026Z,99.90
2023-01-11T23:44:17.331Z,99.90
2023-01-11T23:47:03.621Z,99.90
2023-01-11T23:49:36.687Z,99.90
2023-01-11T23:52:04.298Z,99.90
2023-01-11T23:54:32.841Z,99.90
2023-01-11T23:57:00.824Z,99.90
2023-01-11T23:59:28.043Z,99.90
